createdAt,value
2022-10-04T00:03:06.424Z,12.92
2022-10-04T00:06:28.160Z,12.91
2022-10-04T00:09:54.031Z,12.92
2022-10-04T00:13:25.095Z,12.90
2022-10-04T00:16:47.140Z,12.90
2022-10-04T00:20:53.225Z,12.83
2022-10-04T00:24:22.468Z,12.79
2022-10-04T00:28:26.145Z,12.78
2022-10-04T00:32:30.961Z,12.73
2022-10-04T00:35:53.725Z,12.71
2022-10-04T00:39:38.631Z,12.69
2022-10-04T00:43:03.939Z,12.71
2022-10-04T00:46:30.266Z,12.70
2022-10-04T00:49:57.630Z,12.69
2022-10-04T00:53:42.624Z,12.65
2022-10-04T00:57:08.456Z,12.66
2022-10-04T01:00:33.144Z,12.66
2022-10-04T01:03:57.627Z,12.56
2022-10-04T01:07:25.809Z,12.58
2022-10-04T01:10:52.914Z,12.56
2022-10-04T01:14:21.493Z,12.54
2022-10-04T01:17:43.073Z,12.53
2022-10-04T01:21:08.110Z,12.56
2022-10-04T01:24:35.855Z,12.56
2022-10-04T01:27:57.113Z,12.58
2022-10-04T01:31:19.114Z,12.56
2022-10-04T01:34:41.849Z,12.49
2022-10-04T01:38:07.214Z,12.51
2022-10-04T01:41:36.618Z,12.53
2022-10-04T01:45:03.892Z,12.51
2022-10-04T01:48:31.962Z,12.53
2022-10-04T01:51:58.486Z,12.53
2022-10-04T01:55:25.043Z,12.52
2022-10-04T01:58:52.362Z,12.53
2022-10-04T02:02:22.317Z,12.52
2022-10-04T02:05:50.459Z,12.54
2022-10-04T02:09:16.613Z,12.54
2022-10-04T02:12:40.055Z,12.51
2022-10-04T02:16:04.094Z,12.54
2022-10-04T02:19:32.317Z,12.53
2022-10-04T02:22:59.216Z,12.48
2022-10-04T02:26:21.421Z,12.47
2022-10-04T02:29:43.154Z,12.47
2022-10-04T02:33:05.516Z,12.49
2022-10-04T02:36:29.564Z,12.48
2022-10-04T02:39:56.651Z,12.42
2022-10-04T02:43:22.326Z,12.44
2022-10-04T02:46:51.463Z,12.44
2022-10-04T02:50:27.395Z,12.42
2022-10-04T02:54:03.113Z,12.43
2022-10-04T02:57:25.824Z,12.39
2022-10-04T03:00:49.923Z,12.41
2022-10-04T03:04:15.121Z,12.40
2022-10-04T03:07:39.233Z,12.37
2022-10-04T03:11:02.584Z,12.32
2022-10-04T03:14:26.933Z,12.29
2022-10-04T03:17:48.419Z,12.32
2022-10-04T03:21:14.711Z,12.29
2022-10-04T03:24:40.835Z,12.28
2022-10-04T03:28:03.802Z,12.31
2022-10-04T03:31:27.843Z,12.33
2022-10-04T03:34:56.458Z,12.33
2022-10-04T03:38:19.079Z,12.32
2022-10-04T03:41:43.327Z,12.33
2022-10-04T03:45:09.380Z,12.33
2022-10-04T03:48:33.354Z,12.32
2022-10-04T03:51:55.090Z,12.30
2022-10-04T03:55:18.610Z,12.30
2022-10-04T03:58:42.026Z,12.26
2022-10-04T04:02:11.392Z,12.23
2022-10-04T04:05:37.502Z,12.14
2022-10-04T04:08:59.832Z,12.15
2022-10-04T04:12:27.117Z,12.13
2022-10-04T04:15:50.880Z,12.07
2022-10-04T04:19:16.576Z,12.01
2022-10-04T04:22:39.201Z,11.96
2022-10-04T04:26:14.500Z,11.94
2022-10-04T04:29:49.890Z,11.91
2022-10-04T04:33:24.221Z,11.89
2022-10-04T04:36:45.602Z,11.87
2022-10-04T04:40:21.060Z,11.83
2022-10-04T04:43:45.709Z,11.81
2022-10-04T04:47:10.285Z,11.78
2022-10-04T04:50:37.031Z,11.73
2022-10-04T04:54:02.952Z,11.70
2022-10-04T04:57:24.767Z,11.65
2022-10-04T05:00:53.540Z,11.62
2022-10-04T05:04:21.422Z,11.56
2022-10-04T05:07:44.574Z,11.50
2022-10-04T05:11:16.513Z,11.44
2022-10-04T05:14:41.134Z,11.36
2022-10-04T05:18:03.283Z,11.34
2022-10-04T05:21:29.921Z,11.32
2022-10-04T05:24:56.571Z,11.31
2022-10-04T05:28:19.325Z,11.31
2022-10-04T05:31:50.077Z,11.32
2022-10-04T05:35:17.839Z,11.34
2022-10-04T05:38:45.973Z,11.36
2022-10-04T05:42:17.529Z,11.38
2022-10-04T05:45:39.219Z,11.41
2022-10-04T05:49:08.331Z,11.42
2022-10-04T05:52:34.589Z,11.43
2022-10-04T05:56:04.176Z,11.43
2022-10-04T05:59:45.787Z,11.46
2022-10-04T06:03:38.873Z,11.47
2022-10-04T06:07:04.648Z,11.49
2022-10-04T06:10:47.501Z,11.49
2022-10-04T06:14:24.281Z,11.52
2022-10-04T06:18:05.284Z,11.53
2022-10-04T06:21:28.571Z,11.56
2022-10-04T06:24:57.884Z,11.59
2022-10-04T06:28:24.395Z,11.64
2022-10-04T06:32:14.413Z,11.68
2022-10-04T06:36:18.281Z,11.70
2022-10-04T06:40:06.128Z,11.75
2022-10-04T06:43:50.519Z,11.74
2022-10-04T06:47:29.710Z,11.77
2022-10-04T06:50:56.712Z,11.72
2022-10-04T06:54:38.832Z,11.77
2022-10-04T06:58:26.192Z,11.75
2022-10-04T07:01:51.479Z,11.75
2022-10-04T07:05:19.948Z,11.77
2022-10-04T07:08:48.405Z,11.82
2022-10-04T07:12:16.396Z,11.90
2022-10-04T07:15:46.316Z,11.92
2022-10-04T07:19:24.903Z,11.93
2022-10-04T07:22:52.511Z,11.98
2022-10-04T07:26:24.554Z,12.07
2022-10-04T07:29:47.708Z,12.15
2022-10-04T07:33:17.961Z,12.21
2022-10-04T07:36:46.405Z,12.28
2022-10-04T07:40:18.287Z,12.34
2022-10-04T07:43:49.887Z,12.47
2022-10-04T07:47:20.200Z,12.51
2022-10-04T07:50:51.706Z,12.49
2022-10-04T07:54:21.639Z,12.48
2022-10-04T07:57:51.460Z,12.49
2022-10-04T08:01:23.965Z,12.55
2022-10-04T08:04:58.889Z,12.56
2022-10-04T08:08:44.203Z,12.61
2022-10-04T08:12:16.739Z,12.64
2022-10-04T08:15:40.050Z,12.66
2022-10-04T08:19:16.221Z,12.71
2022-10-04T08:22:58.646Z,12.62
2022-10-04T08:26:38.139Z,12.61
2022-10-04T08:30:11.013Z,12.61
2022-10-04T08:33:49.328Z,12.68
2022-10-04T08:37:24.329Z,12.73
2022-10-04T08:41:13.098Z,12.65
2022-10-04T08:45:07.871Z,12.65
2022-10-04T08:49:11.511Z,12.67
2022-10-04T08:53:11.178Z,12.62
2022-10-04T08:56:53.360Z,12.71
2022-10-04T09:00:20.482Z,12.76
2022-10-04T09:04:23.289Z,12.79
2022-10-04T09:08:13.655Z,12.80
2022-10-04T09:11:51.026Z,12.77
2022-10-04T09:15:31.483Z,12.79
2022-10-04T09:19:22.445Z,12.84
2022-10-04T09:22:49.971Z,12.87
2022-10-04T09:26:23.035Z,12.94
2022-10-04T09:30:04.481Z,13.03
2022-10-04T09:33:49.403Z,13.12
2022-10-04T09:37:26.048Z,13.18
2022-10-04T09:41:08.460Z,13.28
2022-10-04T09:45:09.710Z,13.36
2022-10-04T09:48:40.627Z,13.40
2022-10-04T09:52:27.904Z,13.50
2022-10-04T09:56:07.272Z,13.54
2022-10-04T09:59:44.832Z,13.56
2022-10-04T10:03:36.839Z,13.65
2022-10-04T10:07:15.106Z,13.75
2022-10-04T10:11:07.235Z,13.79
2022-10-04T10:15:01.058Z,13.85
2022-10-04T10:18:31.764Z,13.85
2022-10-04T10:22:31.323Z,13.89
2022-10-04T10:26:13.679Z,13.91
2022-10-04T10:30:03.283Z,13.94
2022-10-04T10:33:55.232Z,13.98
2022-10-04T10:37:31.022Z,14.08
2022-10-04T10:41:19.185Z,14.15
2022-10-04T10:45:01.774Z,14.28
2022-10-04T10:48:36.540Z,14.31
2022-10-04T10:52:29.299Z,14.31
2022-10-04T10:56:19.318Z,14.29
2022-10-04T11:00:05.476Z,14.28
2022-10-04T11:03:53.941Z,14.30
2022-10-04T11:07:54.223Z,14.38
2022-10-04T11:12:01.530Z,14.45
2022-10-04T11:16:08.230Z,14.52
2022-10-04T11:20:09.499Z,14.57
2022-10-04T11:24:14.251Z,14.59
2022-10-04T11:27:49.743Z,14.70
2022-10-04T11:31:48.830Z,14.78
2022-10-04T11:35:40.308Z,14.84
2022-10-04T11:39:54.233Z,14.89
2022-10-04T11:43:32.926Z,15.01
2022-10-04T11:47:01.947Z,15.12
2022-10-04T11:50:38.911Z,15.12
2022-10-04T11:54:30.175Z,15.14
2022-10-04T11:57:57.606Z,15.19
2022-10-04T12:01:47.654Z,15.17
2022-10-04T12:05:24.850Z,15.16
2022-10-04T12:09:05.254Z,15.18
2022-10-04T12:12:45.307Z,15.25
2022-10-04T12:16:29.811Z,15.34
2022-10-04T12:20:12.043Z,15.38
2022-10-04T12:24:04.401Z,15.45
2022-10-04T12:27:51.057Z,15.46
2022-10-04T12:31:21.868Z,15.51
2022-10-04T12:34:52.745Z,15.54
2022-10-04T12:38:29.255Z,15.58
2022-10-04T12:42:02.433Z,15.60
2022-10-04T12:45:36.295Z,15.61
2022-10-04T12:49:08.902Z,15.59
2022-10-04T12:52:44.070Z,15.63
2022-10-04T12:56:14.458Z,15.68
2022-10-04T12:59:55.772Z,15.74
2022-10-04T13:03:34.065Z,15.82
2022-10-04T13:07:09.775Z,15.87
2022-10-04T13:10:49.871Z,15.90
2022-10-04T13:14:41.352Z,15.88
2022-10-04T13:18:22.388Z,15.91
2022-10-04T13:22:11.935Z,15.91
2022-10-04T13:26:03.493Z,15.96
2022-10-04T13:29:33.326Z,15.98
2022-10-04T13:33:05.447Z,15.97
2022-10-04T13:36:33.149Z,16.02
2022-10-04T13:40:23.532Z,16.06
2022-10-04T13:44:21.511Z,16.14
2022-10-04T13:48:12.571Z,16.24
2022-10-04T13:52:12.050Z,16.24
2022-10-04T13:55:57.840Z,16.25
2022-10-04T13:59:32.333Z,16.29
2022-10-04T14:03:19.710Z,16.35
2022-10-04T14:07:36.094Z,16.43
2022-10-04T14:11:30.323Z,16.50
2022-10-04T14:15:33.283Z,16.54
2022-10-04T14:19:24.044Z,16.63
2022-10-04T14:23:10.220Z,16.70
2022-10-04T14:26:54.585Z,16.74
2022-10-04T14:30:52.663Z,16.77
2022-10-04T14:34:47.324Z,16.80
2022-10-04T14:38:36.293Z,16.79
2022-10-04T14:42:25.228Z,16.80
2022-10-04T14:46:07.478Z,16.81
2022-10-04T14:50:00.281Z,16.80
2022-10-04T14:53:35.039Z,16.81
2022-10-04T14:57:08.849Z,16.84
2022-10-04T15:00:49.373Z,16.88
2022-10-04T15:04:33.060Z,16.91
2022-10-04T15:08:13.205Z,16.91
2022-10-04T15:11:42.219Z,16.93
2022-10-04T15:15:21.972Z,16.95
2022-10-04T15:19:06.824Z,16.95
2022-10-04T15:22:37.496Z,16.96
2022-10-04T15:26:14.781Z,16.97
2022-10-04T15:29:43.736Z,17.11
2022-10-04T15:33:30.269Z,17.09
2022-10-04T15:37:14.603Z,17.03
2022-10-04T15:40:48.420Z,17.00
2022-10-04T15:44:34.427Z,17.13
2022-10-04T15:48:14.282Z,17.21
2022-10-04T15:51:51.101Z,17.15
2022-10-04T15:55:23.279Z,16.97
2022-10-04T15:59:26.264Z,16.73
2022-10-04T16:03:09.252Z,16.52
2022-10-04T16:06:41.891Z,16.33
2022-10-04T16:10:20.462Z,16.16
2022-10-04T16:14:19.965Z,15.99
2022-10-04T16:17:59.714Z,15.82
2022-10-04T16:21:31.822Z,15.65
2022-10-04T16:24:54.747Z,15.52
2022-10-04T16:28:28.061Z,15.37
2022-10-04T16:31:56.538Z,15.24
2022-10-04T16:35:29.477Z,15.11
2022-10-04T16:39:11.660Z,14.99
2022-10-04T16:42:48.035Z,14.84
2022-10-04T16:46:25.120Z,14.71
2022-10-04T16:49:54.244Z,14.59
2022-10-04T16:53:32.782Z,14.44
2022-10-04T16:57:22.316Z,14.31
2022-10-04T17:00:44.633Z,14.21
2022-10-04T17:04:22.993Z,14.08
2022-10-04T17:08:03.748Z,13.97
2022-10-04T17:11:56.799Z,13.84
2022-10-04T17:15:34.808Z,13.73
2022-10-04T17:19:16.431Z,13.63
2022-10-04T17:22:49.448Z,13.55
2022-10-04T17:26:24.983Z,13.46
2022-10-04T17:30:03.181Z,13.37
2022-10-04T17:33:36.711Z,13.29
2022-10-04T17:37:12.275Z,13.23
2022-10-04T17:40:46.928Z,13.14
2022-10-04T17:44:23.812Z,13.06
2022-10-04T17:48:13.548Z,12.99
2022-10-04T17:51:59.830Z,12.91
2022-10-04T17:55:28.698Z,12.84
2022-10-04T17:58:55.665Z,12.79
2022-10-04T18:02:23.724Z,12.71
2022-10-04T18:05:53.577Z,12.68
2022-10-04T18:09:24.066Z,12.61
2022-10-04T18:12:51.672Z,12.57
2022-10-04T18:16:22.494Z,12.52
2022-10-04T18:19:51.870Z,12.50
2022-10-04T18:23:20.092Z,12.49
2022-10-04T18:26:56.767Z,12.49
2022-10-04T18:30:20.683Z,12.48
2022-10-04T18:33:50.259Z,12.48
2022-10-04T18:37:21.176Z,12.49
2022-10-04T18:40:55.249Z,12.51
2022-10-04T18:44:18.313Z,12.58
2022-10-04T18:47:42.253Z,12.64
2022-10-04T18:51:24.551Z,12.70
2022-10-04T18:54:54.477Z,12.73
2022-10-04T18:58:48.726Z,12.80
2022-10-04T19:02:15.506Z,12.85
2022-10-04T19:05:44.418Z,12.86
2022-10-04T19:09:17.174Z,12.91
2022-10-04T19:12:49.324Z,12.93
2022-10-04T19:16:27.761Z,12.95
2022-10-04T19:19:58.471Z,12.99
2022-10-04T19:23:29.148Z,13.00
2022-10-04T19:26:57.110Z,13.01
2022-10-04T19:30:21.780Z,13.02
2022-10-04T19:33:51.023Z,13.02
2022-10-04T19:37:23.881Z,13.01
2022-10-04T19:40:49.351Z,13.01
2022-10-04T19:44:25.695Z,13.01
2022-10-04T19:47:51.208Z,13.02
2022-10-04T19:51:21.325Z,13.00
2022-10-04T19:54:42.817Z,12.96
2022-10-04T19:58:15.013Z,12.93
2022-10-04T20:01:36.474Z,12.86
2022-10-04T20:04:58.259Z,12.81
2022-10-04T20:08:52.636Z,12.77
2022-10-04T20:12:31.702Z,12.72
2022-10-04T20:15:59.862Z,12.70
2022-10-04T20:19:36.987Z,12.70
2022-10-04T20:22:58.697Z,12.71
2022-10-04T20:26:55.990Z,12.71
2022-10-04T20:30:17.695Z,12.70
2022-10-04T20:33:46.622Z,12.68
2022-10-04T20:37:09.265Z,12.66
2022-10-04T20:40:45.225Z,12.66
2022-10-04T20:44:09.748Z,12.67
2022-10-04T20:47:40.259Z,12.68
2022-10-04T20:51:09.552Z,12.71
2022-10-04T20:54:30.815Z,12.72
2022-10-04T20:57:52.218Z,12.72
2022-10-04T21:01:42.389Z,12.71
2022-10-04T21:05:13.726Z,12.76
2022-10-04T21:08:35.953Z,12.79
2022-10-04T21:11:58.407Z,12.79
2022-10-04T21:15:22.839Z,12.81
2022-10-04T21:18:45.957Z,12.85
2022-10-04T21:22:08.539Z,12.86
2022-10-04T21:25:33.674Z,12.84
2022-10-04T21:28:57.031Z,12.87
2022-10-04T21:32:18.671Z,12.91
2022-10-04T21:35:41.251Z,12.90
2022-10-04T21:39:02.685Z,12.91
2022-10-04T21:42:23.747Z,12.87
2022-10-04T21:45:45.503Z,12.92
2022-10-04T21:49:07.818Z,12.94
2022-10-04T21:52:30.883Z,12.93
2022-10-04T21:55:52.663Z,12.94
2022-10-04T21:59:14.060Z,12.96
2022-10-04T22:02:36.058Z,12.96
2022-10-04T22:05:57.902Z,12.96
2022-10-04T22:09:21.026Z,13.00
2022-10-04T22:12:42.211Z,13.02
2022-10-04T22:16:04.960Z,13.04
2022-10-04T22:19:26.276Z,13.06
2022-10-04T22:22:47.630Z,13.07
2022-10-04T22:26:13.512Z,13.08
2022-10-04T22:29:36.761Z,13.06
2022-10-04T22:32:59.878Z,13.03
2022-10-04T22:36:25.043Z,13.02
2022-10-04T22:39:46.579Z,12.97
2022-10-04T22:43:14.777Z,12.95
2022-10-04T22:46:41.967Z,12.96
2022-10-04T22:50:03.276Z,12.92
2022-10-04T22:53:24.879Z,12.85
2022-10-04T22:56:46.538Z,12.81
2022-10-04T23:00:12.640Z,12.73
2022-10-04T23:03:34.580Z,12.66
2022-10-04T23:06:55.899Z,12.58
2022-10-04T23:10:19.911Z,12.52
2022-10-04T23:13:41.859Z,12.45
2022-10-04T23:17:17.743Z,12.38
2022-10-04T23:20:39.130Z,12.35
2022-10-04T23:24:08.970Z,12.29
2022-10-04T23:27:30.703Z,12.25
2022-10-04T23:31:03.403Z,12.21
2022-10-04T23:34:31.810Z,12.18
2022-10-04T23:37:54.593Z,12.13
2022-10-04T23:41:17.480Z,12.13
2022-10-04T23:44:39.501Z,12.16
2022-10-04T23:48:02.029Z,12.14
2022-10-04T23:51:24.718Z,12.16
2022-10-04T23:54:45.949Z,12.15
2022-10-04T23:58:15.229Z,12.12
